sensor_id;sensor_type;location;lat;lon;timestamp;P1;durP1;ratioP1;P2;durP2;ratioP2
13122;SDS011;6627;50.920;12.050;2022-09-06T00:00:24;7.87;;;7.17;;
13122;SDS011;6627;50.920;12.050;2022-09-06T00:02:52;8.50;;;7.70;;
13122;SDS011;6627;50.920;12.050;2022-09-06T00:05:21;9.23;;;8.27;;
13122;SDS011;6627;50.920;12.050;2022-09-06T00:07:48;8.60;;;7.80;;
13122;SDS011;6627;50.920;12.050;2022-09-06T00:10:16;8.53;;;7.60;;
13122;SDS011;6627;50.920;12.050;2022-09-06T00:12:44;8.50;;;7.70;;
13122;SDS011;6627;50.920;12.050;2022-09-06T00:15:12;8.17;;;7.43;;
13122;SDS011;6627;50.920;12.050;2022-09-06T00:17:40;8.03;;;7.33;;
13122;SDS011;6627;50.920;12.050;2022-09-06T00:20:09;8.47;;;7.00;;
13122;SDS011;6627;50.920;12.050;2022-09-06T00:22:38;8.90;;;8.00;;
13122;SDS011;6627;50.920;12.050;2022-09-06T00:25:06;8.40;;;7.70;;
13122;SDS011;6627;50.920;12.050;2022-09-06T00:27:35;8.17;;;7.40;;
13122;SDS011;6627;50.920;12.050;2022-09-06T00:30:02;8.27;;;7.57;;
13122;SDS011;6627;50.920;12.050;2022-09-06T00:32:30;9.20;;;8.03;;
13122;SDS011;6627;50.920;12.050;2022-09-06T00:34:58;8.00;;;7.23;;
13122;SDS011;6627;50.920;12.050;2022-09-06T00:37:25;7.50;;;6.90;;
13122;SDS011;6627;50.920;12.050;2022-09-06T00:39:54;7.23;;;6.63;;
13122;SDS011;6627;50.920;12.050;2022-09-06T00:42:21;8.40;;;6.93;;
13122;SDS011;6627;50.920;12.050;2022-09-06T00:44:48;7.30;;;6.60;;
13122;SDS011;6627;50.920;12.050;2022-09-06T00:47:16;7.07;;;6.43;;
13122;SDS011;6627;50.920;12.050;2022-09-06T00:49:46;8.00;;;6.50;;
13122;SDS011;6627;50.920;12.050;2022-09-06T00:52:18;9.43;;;6.20;;
13122;SDS011;6627;50.920;12.050;2022-09-06T00:54:46;6.73;;;5.73;;
13122;SDS011;6627;50.920;12.050;2022-09-06T00:57:17;6.30;;;5.70;;
13122;SDS011;6627;50.920;12.050;2022-09-06T00:59:45;6.50;;;5.90;;
13122;SDS011;6627;50.920;12.050;2022-09-06T01:02:13;6.30;;;5.67;;
13122;SDS011;6627;50.920;12.050;2022-09-06T01:04:41;7.27;;;6.67;;
13122;SDS011;6627;50.920;12.050;2022-09-06T01:07:16;7.20;;;6.10;;
13122;SDS011;6627;50.920;12.050;2022-09-06T01:09:59;7.17;;;6.53;;
13122;SDS011;6627;50.920;12.050;2022-09-06T01:12:49;6.63;;;6.03;;
13122;SDS011;6627;50.920;12.050;2022-09-06T01:15:31;7.10;;;6.50;;
13122;SDS011;6627;50.920;12.050;2022-09-06T01:18:16;7.20;;;6.50;;
13122;SDS011;6627;50.920;12.050;2022-09-06T01:21:01;8.13;;;6.90;;
13122;SDS011;6627;50.920;12.050;2022-09-06T01:23:51;7.43;;;6.73;;
13122;SDS011;6627;50.920;12.050;2022-09-06T01:27:00;8.03;;;7.33;;
13122;SDS011;6627;50.920;12.050;2022-09-06T01:29:53;9.17;;;8.33;;
13122;SDS011;6627;50.920;12.050;2022-09-06T01:32:29;8.93;;;8.13;;
13122;SDS011;6627;50.920;12.050;2022-09-06T01:35:17;9.30;;;8.50;;
13122;SDS011;6627;50.920;12.050;2022-09-06T01:37:55;9.50;;;8.60;;
13122;SDS011;6627;50.920;12.050;2022-09-06T01:40:24;9.30;;;8.50;;
13122;SDS011;6627;50.920;12.050;2022-09-06T01:42:54;9.20;;;8.33;;
13122;SDS011;6627;50.920;12.050;2022-09-06T01:45:25;9.03;;;8.30;;
13122;SDS011;6627;50.920;12.050;2022-09-06T01:48:10;8.73;;;7.67;;
13122;SDS011;6627;50.920;12.050;2022-09-06T01:50:49;8.63;;;7.87;;
13122;SDS011;6627;50.920;12.050;2022-09-06T01:53:48;9.10;;;8.20;;
13122;SDS011;6627;50.920;12.050;2022-09-06T01:56:56;8.60;;;7.80;;
13122;SDS011;6627;50.920;12.050;2022-09-06T01:59:42;9.30;;;6.90;;
13122;SDS011;6627;50.920;12.050;2022-09-06T02:02:32;8.47;;;7.67;;
13122;SDS011;6627;50.920;12.050;2022-09-06T02:05:16;9.07;;;8.27;;
13122;SDS011;6627;50.920;12.050;2022-09-06T02:07:54;9.10;;;8.20;;
13122;SDS011;6627;50.920;12.050;2022-09-06T02:10:27;8.83;;;8.07;;
13122;SDS011;6627;50.920;12.050;2022-09-06T02:13:03;9.70;;;8.80;;
13122;SDS011;6627;50.920;12.050;2022-09-06T02:15:38;10.80;;;9.07;;
13122;SDS011;6627;50.920;12.050;2022-09-06T02:18:15;10.53;;;9.53;;
13122;SDS011;6627;50.920;12.050;2022-09-06T02:20:50;10.63;;;9.47;;
13122;SDS011;6627;50.920;12.050;2022-09-06T02:23:24;11.30;;;9.70;;
13122;SDS011;6627;50.920;12.050;2022-09-06T02:25:58;10.07;;;9.07;;
13122;SDS011;6627;50.920;12.050;2022-09-06T02:28:33;10.97;;;9.87;;
13122;SDS011;6627;50.920;12.050;2022-09-06T02:31:03;11.20;;;10.00;;
13122;SDS011;6627;50.920;12.050;2022-09-06T02:33:39;10.93;;;9.53;;
13122;SDS011;6627;50.920;12.050;2022-09-06T02:36:10;10.97;;;9.97;;
13122;SDS011;6627;50.920;12.050;2022-09-06T02:38:40;11.10;;;10.10;;
13122;SDS011;6627;50.920;12.050;2022-09-06T02:41:10;10.90;;;9.80;;
13122;SDS011;6627;50.920;12.050;2022-09-06T02:43:40;14.53;;;9.67;;
13122;SDS011;6627;50.920;12.050;2022-09-06T02:46:10;13.23;;;10.87;;
13122;SDS011;6627;50.920;12.050;2022-09-06T02:48:37;10.87;;;9.53;;
13122;SDS011;6627;50.920;12.050;2022-09-06T02:51:05;11.37;;;10.20;;
13122;SDS011;6627;50.920;12.050;2022-09-06T02:53:35;11.20;;;10.20;;
13122;SDS011;6627;50.920;12.050;2022-09-06T02:56:02;13.23;;;11.97;;
13122;SDS011;6627;50.920;12.050;2022-09-06T02:58:31;11.90;;;10.43;;
13122;SDS011;6627;50.920;12.050;2022-09-06T03:00:58;13.53;;;12.23;;
13122;SDS011;6627;50.920;12.050;2022-09-06T03:03:27;13.67;;;12.37;;
13122;SDS011;6627;50.920;12.050;2022-09-06T03:05:54;14.73;;;13.23;;
13122;SDS011;6627;50.920;12.050;2022-09-06T03:08:22;14.37;;;13.00;;
13122;SDS011;6627;50.920;12.050;2022-09-06T03:10:54;13.10;;;11.93;;
13122;SDS011;6627;50.920;12.050;2022-09-06T03:13:23;14.37;;;13.07;;
13122;SDS011;6627;50.920;12.050;2022-09-06T03:15:50;14.20;;;12.90;;
13122;SDS011;6627;50.920;12.050;2022-09-06T03:18:20;14.57;;;13.20;;
13122;SDS011;6627;50.920;12.050;2022-09-06T03:20:48;14.73;;;13.07;;
13122;SDS011;6627;50.920;12.050;2022-09-06T03:23:16;14.47;;;13.07;;
13122;SDS011;6627;50.920;12.050;2022-09-06T03:25:43;13.70;;;12.40;;
13122;SDS011;6627;50.920;12.050;2022-09-06T03:28:11;13.60;;;12.40;;
13122;SDS011;6627;50.920;12.050;2022-09-06T03:30:39;13.27;;;12.03;;
13122;SDS011;6627;50.920;12.050;2022-09-06T03:33:09;14.13;;;12.83;;
13122;SDS011;6627;50.920;12.050;2022-09-06T03:35:37;13.60;;;12.43;;
13122;SDS011;6627;50.920;12.050;2022-09-06T03:38:05;13.67;;;12.37;;
13122;SDS011;6627;50.920;12.050;2022-09-06T03:40:33;14.70;;;13.33;;
13122;SDS011;6627;50.920;12.050;2022-09-06T03:43:00;13.30;;;12.00;;
13122;SDS011;6627;50.920;12.050;2022-09-06T03:45:27;13.83;;;12.53;;
13122;SDS011;6627;50.920;12.050;2022-09-06T03:47:55;14.53;;;13.20;;
13122;SDS011;6627;50.920;12.050;2022-09-06T03:50:22;13.83;;;12.67;;
13122;SDS011;6627;50.920;12.050;2022-09-06T03:52:50;14.90;;;13.57;;
13122;SDS011;6627;50.920;12.050;2022-09-06T03:55:19;16.37;;;14.87;;
13122;SDS011;6627;50.920;12.050;2022-09-06T03:57:46;17.40;;;15.67;;
13122;SDS011;6627;50.920;12.050;2022-09-06T04:00:14;15.53;;;14.13;;
13122;SDS011;6627;50.920;12.050;2022-09-06T04:02:41;16.37;;;14.87;;
13122;SDS011;6627;50.920;12.050;2022-09-06T04:05:09;15.57;;;13.97;;
13122;SDS011;6627;50.920;12.050;2022-09-06T04:07:37;16.00;;;14.33;;
13122;SDS011;6627;50.920;12.050;2022-09-06T04:10:05;14.70;;;13.40;;
13122;SDS011;6627;50.920;12.050;2022-09-06T04:12:35;14.73;;;13.40;;
13122;SDS011;6627;50.920;12.050;2022-09-06T04:15:02;15.53;;;14.13;;
13122;SDS011;6627;50.920;12.050;2022-09-06T04:17:30;16.30;;;14.80;;
13122;SDS011;6627;50.920;12.050;2022-09-06T04:19:58;16.10;;;14.60;;
13122;SDS011;6627;50.920;12.050;2022-09-06T04:22:25;14.80;;;13.50;;
13122;SDS011;6627;50.920;12.050;2022-09-06T04:24:52;16.17;;;14.67;;
13122;SDS011;6627;50.920;12.050;2022-09-06T04:27:19;15.23;;;13.67;;
13122;SDS011;6627;50.920;12.050;2022-09-06T04:29:48;16.57;;;15.07;;
13122;SDS011;6627;50.920;12.050;2022-09-06T04:32:15;16.93;;;15.40;;
13122;SDS011;6627;50.920;12.050;2022-09-06T04:34:42;18.17;;;16.50;;
13122;SDS011;6627;50.920;12.050;2022-09-06T04:37:09;16.33;;;14.83;;
13122;SDS011;6627;50.920;12.050;2022-09-06T04:39:37;17.07;;;15.37;;
13122;SDS011;6627;50.920;12.050;2022-09-06T04:42:04;15.97;;;14.57;;
13122;SDS011;6627;50.920;12.050;2022-09-06T04:44:31;17.73;;;15.67;;
13122;SDS011;6627;50.920;12.050;2022-09-06T04:47:04;23.90;;;15.93;;
13122;SDS011;6627;50.920;12.050;2022-09-06T04:49:39;36.47;;;17.17;;
13122;SDS011;6627;50.920;12.050;2022-09-06T04:52:06;34.07;;;17.90;;
13122;SDS011;6627;50.920;12.050;2022-09-06T04:54:34;30.53;;;16.87;;
13122;SDS011;6627;50.920;12.050;2022-09-06T04:57:01;31.00;;;16.23;;
13122;SDS011;6627;50.920;12.050;2022-09-06T04:59:29;27.00;;;15.67;;
13122;SDS011;6627;50.920;12.050;2022-09-06T05:01:57;24.13;;;15.13;;
13122;SDS011;6627;50.920;12.050;2022-09-06T05:04:25;18.03;;;14.23;;
13122;SDS011;6627;50.920;12.050;2022-09-06T05:06:58;15.30;;;13.70;;
13122;SDS011;6627;50.920;12.050;2022-09-06T05:09:27;18.37;;;13.43;;
13122;SDS011;6627;50.920;12.050;2022-09-06T05:11:54;17.00;;;13.63;;
13122;SDS011;6627;50.920;12.050;2022-09-06T05:14:22;15.23;;;13.60;;
13122;SDS011;6627;50.920;12.050;2022-09-06T05:16:49;14.03;;;12.57;;
13122;SDS011;6627;50.920;12.050;2022-09-06T05:19:17;18.40;;;13.27;;
13122;SDS011;6627;50.920;12.050;2022-09-06T05:21:46;15.13;;;13.57;;
13122;SDS011;6627;50.920;12.050;2022-09-06T05:24:13;15.17;;;13.77;;
13122;SDS011;6627;50.920;12.050;2022-09-06T05:26:40;16.60;;;14.23;;
13122;SDS011;6627;50.920;12.050;2022-09-06T05:29:08;15.73;;;14.23;;
13122;SDS011;6627;50.920;12.050;2022-09-06T05:31:35;15.50;;;14.10;;
13122;SDS011;6627;50.920;12.050;2022-09-06T05:34:02;15.93;;;14.17;;
13122;SDS011;6627;50.920;12.050;2022-09-06T05:36:29;14.50;;;13.20;;
13122;SDS011;6627;50.920;12.050;2022-09-06T05:38:59;14.67;;;13.40;;
13122;SDS011;6627;50.920;12.050;2022-09-06T05:41:26;15.90;;;14.60;;
13122;SDS011;6627;50.920;12.050;2022-09-06T05:43:53;15.50;;;13.90;;
13122;SDS011;6627;50.920;12.050;2022-09-06T05:46:21;15.90;;;14.33;;
13122;SDS011;6627;50.920;12.050;2022-09-06T05:48:51;15.20;;;13.70;;
13122;SDS011;6627;50.920;12.050;2022-09-06T05:51:19;16.23;;;14.70;;
13122;SDS011;6627;50.920;12.050;2022-09-06T05:53:46;15.23;;;13.67;;
13122;SDS011;6627;50.920;12.050;2022-09-06T05:56:15;15.27;;;13.83;;
13122;SDS011;6627;50.920;12.050;2022-09-06T05:58:43;15.87;;;14.47;;
13122;SDS011;6627;50.920;12.050;2022-09-06T06:01:14;20.13;;;13.63;;
13122;SDS011;6627;50.920;12.050;2022-09-06T06:03:48;21.87;;;12.47;;
13122;SDS011;6627;50.920;12.050;2022-09-06T06:06:18;15.80;;;11.73;;
13122;SDS011;6627;50.920;12.050;2022-09-06T06:08:47;16.67;;;11.83;;
13122;SDS011;6627;50.920;12.050;2022-09-06T06:11:16;15.20;;;11.93;;
13122;SDS011;6627;50.920;12.050;2022-09-06T06:13:44;23.03;;;13.30;;
13122;SDS011;6627;50.920;12.050;2022-09-06T06:16:12;19.20;;;13.33;;
13122;SDS011;6627;50.920;12.050;2022-09-06T06:18:42;33.87;;;15.33;;
13122;SDS011;6627;50.920;12.050;2022-09-06T06:21:10;48.90;;;17.83;;
13122;SDS011;6627;50.920;12.050;2022-09-06T06:23:41;40.50;;;18.13;;
13122;SDS011;6627;50.920;12.050;2022-09-06T06:26:34;46.07;;;18.03;;
13122;SDS011;6627;50.920;12.050;2022-09-06T06:29:02;32.63;;;15.77;;
13122;SDS011;6627;50.920;12.050;2022-09-06T06:31:34;30.53;;;15.33;;
13122;SDS011;6627;50.920;12.050;2022-09-06T06:34:03;23.27;;;13.87;;
13122;SDS011;6627;50.920;12.050;2022-09-06T06:36:31;14.63;;;12.20;;
13122;SDS011;6627;50.920;12.050;2022-09-06T06:39:01;13.57;;;11.43;;
13122;SDS011;6627;50.920;12.050;2022-09-06T06:41:34;13.27;;;11.90;;
13122;SDS011;6627;50.920;12.050;2022-09-06T06:44:02;14.30;;;11.70;;
13122;SDS011;6627;50.920;12.050;2022-09-06T06:46:32;14.07;;;11.40;;
13122;SDS011;6627;50.920;12.050;2022-09-06T06:49:02;13.57;;;12.13;;
13122;SDS011;6627;50.920;12.050;2022-09-06T06:51:30;14.53;;;11.33;;
13122;SDS011;6627;50.920;12.050;2022-09-06T06:54:01;12.73;;;11.43;;
13122;SDS011;6627;50.920;12.050;2022-09-06T06:56:30;12.87;;;11.77;;
13122;SDS011;6627;50.920;12.050;2022-09-06T06:59:02;14.23;;;12.77;;
13122;SDS011;6627;50.920;12.050;2022-09-06T07:01:32;13.30;;;11.90;;
13122;SDS011;6627;50.920;12.050;2022-09-06T07:04:01;16.77;;;11.80;;
13122;SDS011;6627;50.920;12.050;2022-09-06T07:06:30;13.80;;;11.30;;
13122;SDS011;6627;50.920;12.050;2022-09-06T07:09:10;13.20;;;11.43;;
13122;SDS011;6627;50.920;12.050;2022-09-06T07:11:39;19.63;;;12.27;;
13122;SDS011;6627;50.920;12.050;2022-09-06T07:14:06;14.70;;;11.20;;
13122;SDS011;6627;50.920;12.050;2022-09-06T07:16:34;11.80;;;10.70;;
13122;SDS011;6627;50.920;12.050;2022-09-06T07:19:01;13.27;;;11.07;;
13122;SDS011;6627;50.920;12.050;2022-09-06T07:21:28;13.47;;;10.40;;
13122;SDS011;6627;50.920;12.050;2022-09-06T07:23:55;13.83;;;10.17;;
13122;SDS011;6627;50.920;12.050;2022-09-06T07:26:23;19.33;;;10.50;;
13122;SDS011;6627;50.920;12.050;2022-09-06T07:28:53;12.87;;;9.23;;
13122;SDS011;6627;50.920;12.050;2022-09-06T07:31:21;18.30;;;9.90;;
13122;SDS011;6627;50.920;12.050;2022-09-06T07:33:49;12.57;;;10.13;;
13122;SDS011;6627;50.920;12.050;2022-09-06T07:36:16;11.17;;;9.57;;
13122;SDS011;6627;50.920;12.050;2022-09-06T07:38:46;11.30;;;9.70;;
13122;SDS011;6627;50.920;12.050;2022-09-06T07:41:15;10.33;;;9.23;;
13122;SDS011;6627;50.920;12.050;2022-09-06T07:43:43;11.70;;;9.20;;
13122;SDS011;6627;50.920;12.050;2022-09-06T07:46:13;15.07;;;9.20;;
13122;SDS011;6627;50.920;12.050;2022-09-06T07:48:43;11.33;;;9.53;;
13122;SDS011;6627;50.920;12.050;2022-09-06T07:51:12;12.87;;;8.73;;
13122;SDS011;6627;50.920;12.050;2022-09-06T07:53:42;10.10;;;8.23;;
13122;SDS011;6627;50.920;12.050;2022-09-06T07:56:15;12.40;;;8.53;;
13122;SDS011;6627;50.920;12.050;2022-09-06T07:58:43;11.67;;;8.60;;
13122;SDS011;6627;50.920;12.050;2022-09-06T08:01:25;12.37;;;8.50;;
13122;SDS011;6627;50.920;12.050;2022-09-06T08:03:56;10.67;;;8.03;;
13122;SDS011;6627;50.920;12.050;2022-09-06T08:06:25;10.17;;;7.90;;
13122;SDS011;6627;50.920;12.050;2022-09-06T08:08:55;9.00;;;7.40;;
13122;SDS011;6627;50.920;12.050;2022-09-06T08:11:24;10.57;;;7.20;;
13122;SDS011;6627;50.920;12.050;2022-09-06T08:13:54;10.40;;;7.47;;
13122;SDS011;6627;50.920;12.050;2022-09-06T08:16:26;7.80;;;7.00;;
13122;SDS011;6627;50.920;12.050;2022-09-06T08:18:56;11.20;;;7.87;;
13122;SDS011;6627;50.920;12.050;2022-09-06T08:21:25;16.27;;;7.90;;
13122;SDS011;6627;50.920;12.050;2022-09-06T08:23:55;13.70;;;7.23;;
13122;SDS011;6627;50.920;12.050;2022-09-06T08:26:25;9.53;;;7.27;;
13122;SDS011;6627;50.920;12.050;2022-09-06T08:28:55;10.17;;;6.83;;
13122;SDS011;6627;50.920;12.050;2022-09-06T08:31:26;8.03;;;7.23;;
13122;SDS011;6627;50.920;12.050;2022-09-06T08:33:56;14.23;;;8.30;;
13122;SDS011;6627;50.920;12.050;2022-09-06T08:36:25;11.73;;;7.33;;
13122;SDS011;6627;50.920;12.050;2022-09-06T08:38:55;17.07;;;7.80;;
13122;SDS011;6627;50.920;12.050;2022-09-06T08:41:23;40.43;;;14.43;;
13122;SDS011;6627;50.920;12.050;2022-09-06T08:43:54;29.80;;;13.47;;
13122;SDS011;6627;50.920;12.050;2022-09-06T08:46:28;22.03;;;10.33;;
13122;SDS011;6627;50.920;12.050;2022-09-06T08:49:03;20.03;;;8.97;;
13122;SDS011;6627;50.920;12.050;2022-09-06T08:51:53;19.30;;;9.63;;
13122;SDS011;6627;50.920;12.050;2022-09-06T08:54:39;14.13;;;7.40;;
13122;SDS011;6627;50.920;12.050;2022-09-06T08:57:15;17.83;;;8.17;;
13122;SDS011;6627;50.920;12.050;2022-09-06T09:00:03;19.97;;;8.70;;
13122;SDS011;6627;50.920;12.050;2022-09-06T09:02:39;21.67;;;9.57;;
13122;SDS011;6627;50.920;12.050;2022-09-06T09:05:20;25.27;;;11.47;;
13122;SDS011;6627;50.920;12.050;2022-09-06T09:07:55;26.33;;;10.63;;
13122;SDS011;6627;50.920;12.050;2022-09-06T09:10:37;21.30;;;10.23;;
13122;SDS011;6627;50.920;12.050;2022-09-06T09:13:12;15.37;;;8.90;;
13122;SDS011;6627;50.920;12.050;2022-09-06T09:15:50;16.53;;;9.13;;
13122;SDS011;6627;50.920;12.050;2022-09-06T09:18:20;12.17;;;7.67;;
13122;SDS011;6627;50.920;12.050;2022-09-06T09:20:52;11.03;;;7.30;;
13122;SDS011;6627;50.920;12.050;2022-09-06T09:23:19;12.33;;;6.93;;
13122;SDS011;6627;50.920;12.050;2022-09-06T09:25:46;7.33;;;6.67;;
13122;SDS011;6627;50.920;12.050;2022-09-06T09:28:18;7.53;;;6.67;;
13122;SDS011;6627;50.920;12.050;2022-09-06T09:30:49;7.37;;;6.70;;
13122;SDS011;6627;50.920;12.050;2022-09-06T09:33:21;7.17;;;6.40;;
13122;SDS011;6627;50.920;12.050;2022-09-06T09:35:52;9.83;;;7.20;;
13122;SDS011;6627;50.920;12.050;2022-09-06T09:38:22;8.00;;;7.20;;
13122;SDS011;6627;50.920;12.050;2022-09-06T09:40:53;10.50;;;6.97;;
13122;SDS011;6627;50.920;12.050;2022-09-06T09:43:23;7.50;;;6.80;;
13122;SDS011;6627;50.920;12.050;2022-09-06T09:46:10;16.07;;;7.30;;
13122;SDS011;6627;50.920;12.050;2022-09-06T09:49:04;9.30;;;7.43;;
13122;SDS011;6627;50.920;12.050;2022-09-06T09:51:34;10.13;;;7.47;;
13122;SDS011;6627;50.920;12.050;2022-09-06T09:54:05;14.83;;;7.70;;
13122;SDS011;6627;50.920;12.050;2022-09-06T09:56:39;10.97;;;7.53;;
13122;SDS011;6627;50.920;12.050;2022-09-06T09:59:20;10.97;;;7.17;;
13122;SDS011;6627;50.920;12.050;2022-09-06T10:01:52;8.10;;;7.10;;
13122;SDS011;6627;50.920;12.050;2022-09-06T10:04:28;10.77;;;8.10;;
13122;SDS011;6627;50.920;12.050;2022-09-06T10:07:07;10.00;;;8.03;;
13122;SDS011;6627;50.920;12.050;2022-09-06T10:09:38;12.53;;;8.17;;
13122;SDS011;6627;50.920;12.050;2022-09-06T10:12:12;8.73;;;7.93;;
13122;SDS011;6627;50.920;12.050;2022-09-06T10:14:44;15.57;;;9.10;;
13122;SDS011;6627;50.920;12.050;2022-09-06T10:17:20;13.33;;;8.70;;
13122;SDS011;6627;50.920;12.050;2022-09-06T10:19:57;10.97;;;8.20;;
13122;SDS011;6627;50.920;12.050;2022-09-06T10:22:30;9.47;;;7.83;;
13122;SDS011;6627;50.920;12.050;2022-09-06T10:25:08;9.87;;;8.20;;
13122;SDS011;6627;50.920;12.050;2022-09-06T10:31:04;12.27;;;8.67;;
13122;SDS011;6627;50.920;12.050;2022-09-06T10:34:00;11.37;;;9.70;;
13122;SDS011;6627;50.920;12.050;2022-09-06T10:36:43;10.67;;;9.67;;
13122;SDS011;6627;50.920;12.050;2022-09-06T10:39:24;11.50;;;10.50;;
13122;SDS011;6627;50.920;12.050;2022-09-06T10:42:10;12.03;;;10.93;;
13122;SDS011;6627;50.920;12.050;2022-09-06T10:44:54;14.10;;;11.37;;
13122;SDS011;6627;50.920;12.050;2022-09-06T10:47:46;13.97;;;12.77;;
13122;SDS011;6627;50.920;12.050;2022-09-06T10:50:32;11.43;;;10.23;;
13122;SDS011;6627;50.920;12.050;2022-09-06T10:53:11;11.33;;;10.23;;
13122;SDS011;6627;50.920;12.050;2022-09-06T10:55:55;9.50;;;8.60;;
13122;SDS011;6627;50.920;12.050;2022-09-06T10:58:33;10.00;;;9.10;;
13122;SDS011;6627;50.920;12.050;2022-09-06T11:01:16;6.60;;;6.00;;
13122;SDS011;6627;50.920;12.050;2022-09-06T11:03:56;5.93;;;5.33;;
13122;SDS011;6627;50.920;12.050;2022-09-06T11:06:27;4.27;;;3.30;;
13122;SDS011;6627;50.920;12.050;2022-09-06T11:09:04;4.87;;;4.37;;
13122;SDS011;6627;50.920;12.050;2022-09-06T11:11:43;5.70;;;3.97;;
13122;SDS011;6627;50.920;12.050;2022-09-06T11:14:16;7.40;;;4.50;;
13122;SDS011;6627;50.920;12.050;2022-09-06T11:16:52;4.77;;;3.80;;
13122;SDS011;6627;50.920;12.050;2022-09-06T11:19:27;5.67;;;3.40;;
13122;SDS011;6627;50.920;12.050;2022-09-06T11:25:23;8.07;;;5.67;;
13122;SDS011;6627;50.920;12.050;2022-09-06T11:28:27;10.67;;;5.70;;
13122;SDS011;6627;50.920;12.050;2022-09-06T11:31:04;7.67;;;6.10;;
13122;SDS011;6627;50.920;12.050;2022-09-06T11:33:34;11.57;;;6.83;;
13122;SDS011;6627;50.920;12.050;2022-09-06T11:36:14;8.47;;;6.83;;
13122;SDS011;6627;50.920;12.050;2022-09-06T11:38:52;10.20;;;7.20;;
13122;SDS011;6627;50.920;12.050;2022-09-06T11:41:25;8.07;;;6.93;;
13122;SDS011;6627;50.920;12.050;2022-09-06T11:43:56;7.40;;;6.70;;
13122;SDS011;6627;50.920;12.050;2022-09-06T11:49:34;9.37;;;5.97;;
13122;SDS011;6627;50.920;12.050;2022-09-06T11:55:18;8.13;;;6.77;;
13122;SDS011;6627;50.920;12.050;2022-09-06T11:57:52;7.00;;;5.90;;
13122;SDS011;6627;50.920;12.050;2022-09-06T12:00:23;6.53;;;5.27;;
13122;SDS011;6627;50.920;12.050;2022-09-06T12:02:51;6.07;;;5.13;;
13122;SDS011;6627;50.920;12.050;2022-09-06T12:05:20;6.23;;;5.50;;
13122;SDS011;6627;50.920;12.050;2022-09-06T12:08:21;6.40;;;5.33;;
13122;SDS011;6627;50.920;12.050;2022-09-06T12:10:58;8.30;;;5.63;;
13122;SDS011;6627;50.920;12.050;2022-09-06T12:13:47;7.23;;;6.57;;
13122;SDS011;6627;50.920;12.050;2022-09-06T12:16:52;8.73;;;6.73;;
13122;SDS011;6627;50.920;12.050;2022-09-06T12:19:47;8.03;;;7.03;;
13122;SDS011;6627;50.920;12.050;2022-09-06T12:25:48;8.47;;;7.67;;
13122;SDS011;6627;50.920;12.050;2022-09-06T12:28:26;11.27;;;8.30;;
13122;SDS011;6627;50.920;12.050;2022-09-06T12:31:02;7.73;;;6.17;;
13122;SDS011;6627;50.920;12.050;2022-09-06T12:33:53;6.37;;;5.77;;
13122;SDS011;6627;50.920;12.050;2022-09-06T12:36:23;7.43;;;5.30;;
13122;SDS011;6627;50.920;12.050;2022-09-06T12:38:56;6.10;;;4.50;;
13122;SDS011;6627;50.920;12.050;2022-09-06T12:41:27;5.40;;;4.90;;
13122;SDS011;6627;50.920;12.050;2022-09-06T12:43:58;6.17;;;4.57;;
13122;SDS011;6627;50.920;12.050;2022-09-06T12:46:28;5.83;;;5.33;;
13122;SDS011;6627;50.920;12.050;2022-09-06T12:48:58;6.27;;;5.50;;
13122;SDS011;6627;50.920;12.050;2022-09-06T12:51:28;6.63;;;6.03;;
13122;SDS011;6627;50.920;12.050;2022-09-06T12:53:56;7.07;;;6.17;;
13122;SDS011;6627;50.920;12.050;2022-09-06T12:56:25;7.20;;;6.50;;
13122;SDS011;6627;50.920;12.050;2022-09-06T12:59:14;8.47;;;6.87;;
13122;SDS011;6627;50.920;12.050;2022-09-06T13:01:48;8.63;;;6.40;;
13122;SDS011;6627;50.920;12.050;2022-09-06T13:04:25;7.17;;;6.00;;
13122;SDS011;6627;50.920;12.050;2022-09-06T13:07:01;6.10;;;5.50;;
13122;SDS011;6627;50.920;12.050;2022-09-06T13:09:31;8.33;;;6.57;;
13122;SDS011;6627;50.920;12.050;2022-09-06T13:12:01;8.00;;;5.70;;
13122;SDS011;6627;50.920;12.050;2022-09-06T13:14:33;9.13;;;6.40;;
13122;SDS011;6627;50.920;12.050;2022-09-06T13:17:04;7.87;;;6.40;;
13122;SDS011;6627;50.920;12.050;2022-09-06T13:19:33;6.23;;;5.63;;
13122;SDS011;6627;50.920;12.050;2022-09-06T13:22:03;6.87;;;6.13;;
13122;SDS011;6627;50.920;12.050;2022-09-06T13:24:43;7.10;;;6.40;;
13122;SDS011;6627;50.920;12.050;2022-09-06T13:27:21;6.77;;;6.07;;
13122;SDS011;6627;50.920;12.050;2022-09-06T13:29:53;9.37;;;6.57;;
13122;SDS011;6627;50.920;12.050;2022-09-06T13:32:23;8.97;;;6.07;;
13122;SDS011;6627;50.920;12.050;2022-09-06T13:34:52;5.43;;;4.87;;
13122;SDS011;6627;50.920;12.050;2022-09-06T13:37:22;4.77;;;4.37;;
13122;SDS011;6627;50.920;12.050;2022-09-06T13:39:51;5.23;;;4.80;;
13122;SDS011;6627;50.920;12.050;2022-09-06T13:42:22;5.83;;;4.63;;
13122;SDS011;6627;50.920;12.050;2022-09-06T13:44:53;4.63;;;4.23;;
13122;SDS011;6627;50.920;12.050;2022-09-06T13:47:21;5.00;;;4.53;;
13122;SDS011;6627;50.920;12.050;2022-09-06T13:49:52;5.17;;;4.50;;
13122;SDS011;6627;50.920;12.050;2022-09-06T13:52:20;5.63;;;4.73;;
13122;SDS011;6627;50.920;12.050;2022-09-06T13:54:48;5.30;;;4.80;;
13122;SDS011;6627;50.920;12.050;2022-09-06T13:57:15;5.47;;;4.60;;
13122;SDS011;6627;50.920;12.050;2022-09-06T13:59:42;5.37;;;4.70;;
13122;SDS011;6627;50.920;12.050;2022-09-06T14:02:10;5.10;;;4.60;;
13122;SDS011;6627;50.920;12.050;2022-09-06T14:04:43;6.50;;;5.27;;
13122;SDS011;6627;50.920;12.050;2022-09-06T14:07:11;6.33;;;5.33;;
13122;SDS011;6627;50.920;12.050;2022-09-06T14:09:38;6.43;;;5.30;;
13122;SDS011;6627;50.920;12.050;2022-09-06T14:12:05;7.20;;;5.10;;
13122;SDS011;6627;50.920;12.050;2022-09-06T14:14:33;7.10;;;4.60;;
13122;SDS011;6627;50.920;12.050;2022-09-06T14:17:00;4.63;;;4.10;;
13122;SDS011;6627;50.920;12.050;2022-09-06T14:19:28;4.43;;;4.13;;
13122;SDS011;6627;50.920;12.050;2022-09-06T14:21:56;4.83;;;4.43;;
13122;SDS011;6627;50.920;12.050;2022-09-06T14:24:24;5.03;;;4.43;;
13122;SDS011;6627;50.920;12.050;2022-09-06T14:26:51;5.97;;;4.90;;
13122;SDS011;6627;50.920;12.050;2022-09-06T14:29:18;5.23;;;4.73;;
13122;SDS011;6627;50.920;12.050;2022-09-06T14:31:45;5.60;;;5.10;;
13122;SDS011;6627;50.920;12.050;2022-09-06T14:34:13;5.47;;;4.87;;
13122;SDS011;6627;50.920;12.050;2022-09-06T14:36:41;5.70;;;4.40;;
13122;SDS011;6627;50.920;12.050;2022-09-06T14:39:09;5.03;;;4.53;;
13122;SDS011;6627;50.920;12.050;2022-09-06T14:41:36;4.77;;;4.20;;
13122;SDS011;6627;50.920;12.050;2022-09-06T14:44:03;5.20;;;3.80;;
13122;SDS011;6627;50.920;12.050;2022-09-06T14:46:30;4.43;;;4.13;;
13122;SDS011;6627;50.920;12.050;2022-09-06T14:48:58;5.63;;;4.47;;
13122;SDS011;6627;50.920;12.050;2022-09-06T14:51:28;4.13;;;3.80;;
13122;SDS011;6627;50.920;12.050;2022-09-06T14:53:56;4.30;;;3.90;;
13122;SDS011;6627;50.920;12.050;2022-09-06T14:56:28;4.60;;;4.30;;
13122;SDS011;6627;50.920;12.050;2022-09-06T14:58:56;4.40;;;4.00;;
13122;SDS011;6627;50.920;12.050;2022-09-06T15:01:24;4.80;;;4.40;;
13122;SDS011;6627;50.920;12.050;2022-09-06T15:03:54;4.37;;;3.70;;
13122;SDS011;6627;50.920;12.050;2022-09-06T15:06:24;4.50;;;4.10;;
13122;SDS011;6627;50.920;12.050;2022-09-06T15:08:54;3.80;;;3.50;;
13122;SDS011;6627;50.920;12.050;2022-09-06T15:11:26;4.30;;;3.77;;
13122;SDS011;6627;50.920;12.050;2022-09-06T15:13:59;4.10;;;3.70;;
13122;SDS011;6627;50.920;12.050;2022-09-06T15:16:27;6.57;;;4.10;;
13122;SDS011;6627;50.920;12.050;2022-09-06T15:18:55;4.20;;;3.80;;
13122;SDS011;6627;50.920;12.050;2022-09-06T15:21:23;4.50;;;3.83;;